Time;durP1;ratioP1;P1;durP2;ratioP2;P2;SDS_P1;SDS_P2;PMS_P1;PMS_P2;Temp;Humidity;BMP_temperature;BMP_pressure;BME280_temperature;BME280_humidity;BME280_pressure;Samples;Min_cycle;Max_cycle;Signal;HPM_P1;HPM_P2
2023/08/04 00:00:43;;;;;;;4.68;2.83;;;18.30;99.90;;;;;;2080177;28;20090;-71
2023/08/04 00:01:43;;;;;;;7.15;3.53;;;18.30;99.90;;;;;;2082063;28;20064;-71
2023/08/04 00:02:44;;;;;;;8.77;3.70;;;18.30;99.90;;;;;;2083250;28;20042;-71
2023/08/04 00:03:45;;;;;;;7.68;3.42;;;18.30;99.90;;;;;;2080507;28;20433;-71
2023/08/04 00:04:46;;;;;;;9.15;3.72;;;18.30;99.90;;;;;;2080245;28;20400;-71
2023/08/04 00:05:47;;;;;;;8.30;3.40;;;18.30;99.90;;;;;;2080408;28;20037;-71
2023/08/04 00:06:47;;;;;;;8.90;3.50;;;18.20;99.90;;;;;;2079939;28;20021;-71
2023/08/04 00:07:48;;;;;;;8.73;3.88;;;18.30;99.90;;;;;;2081388;28;20606;-71
2023/08/04 00:08:48;;;;;;;6.50;3.03;;;18.30;99.90;;;;;;2083546;28;20067;-71
2023/08/04 00:09:49;;;;;;;6.55;3.25;;;18.30;99.90;;;;;;2077802;28;20022;-71
2023/08/04 00:10:50;;;;;;;7.05;3.17;;;18.20;99.90;;;;;;2081163;28;20025;-71
2023/08/04 00:11:50;;;;;;;6.15;3.25;;;18.30;99.90;;;;;;2082040;28;20025;-71
2023/08/04 00:12:51;;;;;;;6.68;2.72;;;18.20;99.90;;;;;;2079362;28;20025;-71
2023/08/04 00:13:51;;;;;;;7.88;3.78;;;18.20;99.90;;;;;;2082351;28;20057;-71
2023/08/04 00:14:52;;;;;;;14.80;4.80;;;18.30;99.90;;;;;;2081081;28;20079;-70
2023/08/04 00:15:52;;;;;;;5.10;3.15;;;18.30;99.90;;;;;;2081048;28;20021;-71
2023/08/04 00:16:53;;;;;;;11.90;4.25;;;18.30;99.90;;;;;;2080679;28;20051;-71
2023/08/04 00:17:54;;;;;;;8.70;4.32;;;18.20;99.90;;;;;;2076925;28;20401;-70
2023/08/04 00:18:55;;;;;;;7.07;3.42;;;18.20;99.90;;;;;;2079288;28;20393;-70
2023/08/04 00:19:55;;;;;;;7.28;3.42;;;18.20;99.90;;;;;;2078840;28;20052;-70
2023/08/04 00:20:56;;;;;;;9.18;4.03;;;18.20;99.90;;;;;;2078690;28;20458;-71
2023/08/04 00:21:56;;;;;;;9.13;4.43;;;18.20;99.90;;;;;;2081544;28;20026;-70
2023/08/04 00:22:57;;;;;;;5.25;3.22;;;18.20;99.90;;;;;;2080231;28;20041;-70
2023/08/04 00:23:58;;;;;;;8.68;3.53;;;18.20;99.90;;;;;;2078571;28;20082;-71
2023/08/04 00:24:58;;;;;;;7.60;3.17;;;18.20;99.90;;;;;;2081497;28;20074;-71
2023/08/04 00:25:59;;;;;;;7.53;3.25;;;18.30;99.90;;;;;;2078108;28;20056;-71
2023/08/04 00:27:00;;;;;;;8.73;3.65;;;18.20;99.90;;;;;;2083017;28;20021;-70
2023/08/04 00:28:01;;;;;;;10.15;3.10;;;18.20;99.90;;;;;;2080102;28;20499;-71
2023/08/04 00:29:01;;;;;;;6.55;3.25;;;18.20;99.90;;;;;;2080530;28;20623;-71
2023/08/04 00:30:02;;;;;;;9.35;3.85;;;18.20;99.90;;;;;;2081135;28;20067;-71
2023/08/04 00:31:03;;;;;;;5.90;3.25;;;18.20;99.90;;;;;;2079815;28;20107;-70
2023/08/04 00:32:04;;;;;;;4.50;2.92;;;18.20;99.90;;;;;;2077899;28;20119;-71
2023/08/04 00:33:04;;;;;;;6.68;3.15;;;18.30;99.90;;;;;;2083019;28;20025;-70
2023/08/04 00:34:05;;;;;;;7.20;3.17;;;18.20;99.90;;;;;;2081469;28;20460;-70
2023/08/04 00:35:06;;;;;;;6.70;3.88;;;18.30;99.90;;;;;;2079065;28;20402;-71
2023/08/04 00:36:06;;;;;;;6.50;3.72;;;18.20;99.90;;;;;;2079148;28;20124;-71
2023/08/04 00:37:07;;;;;;;13.10;3.63;;;18.20;99.90;;;;;;2080682;28;20021;-71
2023/08/04 00:38:07;;;;;;;8.88;3.20;;;18.20;99.90;;;;;;2082027;28;20064;-70
2023/08/04 00:39:08;;;;;;;7.53;3.13;;;18.20;99.90;;;;;;2080733;28;20040;-71
2023/08/04 00:40:09;;;;;;;8.02;3.53;;;18.30;99.90;;;;;;2079202;28;20378;-71
2023/08/04 00:41:09;;;;;;;10.63;3.67;;;18.20;99.90;;;;;;2079870;28;20048;-71
2023/08/04 00:42:10;;;;;;;14.57;3.88;;;18.20;99.90;;;;;;2078121;28;20040;-71
2023/08/04 00:43:12;;;;;;;7.45;3.58;;;18.20;99.90;;;;;;2078932;28;20489;-70
2023/08/04 00:44:12;;;;;;;12.77;4.35;;;18.20;99.90;;;;;;2079995;28;20533;-70
2023/08/04 00:45:13;;;;;;;8.80;3.28;;;18.20;99.90;;;;;;2078740;28;20503;-70
2023/08/04 00:46:14;;;;;;;9.90;4.55;;;18.20;99.90;;;;;;2080877;28;20339;-70
2023/08/04 00:47:15;;;;;;;5.57;4.07;;;18.30;99.90;;;;;;2078664;28;20061;-70
2023/08/04 00:48:16;;;;;;;8.13;4.50;;;18.30;99.90;;;;;;2080301;28;20974;-70
2023/08/04 00:49:18;;;;;;;10.13;3.75;;;18.20;99.90;;;;;;2079966;28;20024;-70
2023/08/04 00:50:19;;;;;;;9.40;3.88;;;18.20;99.90;;;;;;2079746;28;20097;-70
2023/08/04 00:51:20;;;;;;;5.03;3.90;;;18.30;99.90;;;;;;2079611;28;20022;-70
2023/08/04 00:52:21;;;;;;;6.22;2.95;;;18.30;99.90;;;;;;2079757;28;20025;-71
2023/08/04 00:53:22;;;;;;;15.00;4.80;;;18.30;99.90;;;;;;2079211;28;20033;-71
2023/08/04 00:54:22;;;;;;;8.38;4.05;;;18.20;99.90;;;;;;2079499;28;20037;-70
2023/08/04 00:55:23;;;;;;;8.10;3.97;;;18.30;99.90;;;;;;2080651;28;20532;-70
2023/08/04 00:56:24;;;;;;;9.00;4.10;;;18.30;99.90;;;;;;2078460;28;20033;-70
2023/08/04 00:57:25;;;;;;;8.52;4.30;;;18.30;99.90;;;;;;2080581;28;20036;-70
2023/08/04 00:58:25;;;;;;;8.02;4.47;;;18.20;99.90;;;;;;2082086;28;20086;-71
2023/08/04 00:59:26;;;;;;;11.63;4.35;;;18.30;99.90;;;;;;2079044;28;20478;-70
2023/08/04 01:00:26;;;;;;;14.38;4.82;;;18.20;99.90;;;;;;2078619;28;20025;-71
2023/08/04 01:01:27;;;;;;;10.00;3.92;;;18.20;99.90;;;;;;2081201;28;20050;-70
2023/08/04 01:02:27;;;;;;;10.30;4.40;;;18.20;99.90;;;;;;2080328;28;20033;-70
2023/08/04 01:03:28;;;;;;;7.35;3.53;;;18.20;99.90;;;;;;2078805;28;20032;-71
2023/08/04 01:04:29;;;;;;;7.40;3.70;;;18.20;99.90;;;;;;2076939;28;20025;-70
2023/08/04 01:05:38;;;;;;;6.25;3.38;;;18.20;99.90;;;;;;2080625;28;20021;-70
2023/08/04 01:07:15;;;;;;;8.25;3.58;;;18.20;99.90;;;;;;2079218;28;20386;-71
2023/08/04 01:08:32;;;;;;;10.88;4.30;;;18.20;99.90;;;;;;2081127;28;20503;-70
2023/08/04 01:09:46;;;;;;;8.07;3.95;;;18.20;99.90;;;;;;2080765;28;20071;-70
2023/08/04 01:10:54;;;;;;;8.43;4.32;;;18.20;99.90;;;;;;2081049;28;20021;-71
2023/08/04 01:12:07;;;;;;;10.55;3.85;;;18.20;99.90;;;;;;2079191;28;20025;-70
2023/08/04 01:13:09;;;;;;;8.70;4.38;;;18.20;99.90;;;;;;2078858;28;20025;-70
2023/08/04 01:14:10;;;;;;;9.93;4.25;;;18.20;99.90;;;;;;2080144;28;20021;-70
2023/08/04 01:15:12;;;;;;;10.63;3.63;;;18.20;99.90;;;;;;2081304;28;20905;-70
2023/08/04 01:16:12;;;;;;;9.07;4.40;;;18.20;99.90;;;;;;2082040;28;20076;-70
2023/08/04 01:17:27;;;;;;;11.85;4.03;;;18.20;99.90;;;;;;2080185;28;20049;-70
2023/08/04 01:18:28;;;;;;;10.25;4.13;;;18.20;99.90;;;;;;2079818;28;20022;-70
2023/08/04 01:19:28;;;;;;;8.43;4.20;;;18.20;99.90;;;;;;2082484;28;20030;-70
2023/08/04 01:20:29;;;;;;;9.80;3.83;;;18.20;99.90;;;;;;2079843;28;20021;-70
2023/08/04 01:21:42;;;;;;;11.65;4.43;;;18.20;99.90;;;;;;2080557;28;20029;-70
2023/08/04 01:22:43;;;;;;;10.52;4.35;;;18.20;99.90;;;;;;2079285;28;20048;-70
2023/08/04 01:23:43;;;;;;;8.77;4.13;;;18.20;99.90;;;;;;2079753;28;20064;-70
2023/08/04 01:24:44;;;;;;;8.20;3.67;;;18.20;99.90;;;;;;2079882;28;20409;-70
2023/08/04 01:25:45;;;;;;;5.30;3.33;;;18.20;99.90;;;;;;2082147;28;20021;-70
2023/08/04 01:26:48;;;;;;;8.98;3.70;;;18.20;99.90;;;;;;2079728;28;20021;-70
2023/08/04 01:28:00;;;;;;;8.43;3.60;;;18.20;99.90;;;;;;2080478;28;20080;-70
2023/08/04 01:29:02;;;;;;;9.48;4.20;;;18.20;99.90;;;;;;2080201;28;20018;-70
2023/08/04 01:30:06;;;;;;;11.73;4.20;;;18.20;99.90;;;;;;2078984;28;20034;-70
2023/08/04 01:31:07;;;;;;;9.50;4.18;;;18.20;99.90;;;;;;2080110;28;20037;-70
2023/08/04 01:32:09;;;;;;;7.10;3.53;;;18.20;99.90;;;;;;2081118;28;20018;-70
2023/08/04 01:33:10;;;;;;;11.15;3.90;;;18.20;99.90;;;;;;2077615;28;20485;-71
2023/08/04 01:34:10;;;;;;;6.07;3.90;;;18.20;99.90;;;;;;2079634;28;20452;-71
2023/08/04 01:35:11;;;;;;;8.10;4.20;;;18.20;99.90;;;;;;2079655;28;20025;-70
2023/08/04 01:36:12;;;;;;;7.15;4.05;;;18.20;99.90;;;;;;2079389;28;20064;-70
2023/08/04 01:37:12;;;;;;;8.02;3.90;;;18.20;99.90;;;;;;2079005;28;20033;-71
2023/08/04 01:38:13;;;;;;;10.25;4.15;;;18.20;99.90;;;;;;2081447;28;20029;-70
2023/08/04 01:39:13;;;;;;;12.02;4.13;;;18.20;99.90;;;;;;2079090;28;20026;-71
2023/08/04 01:40:14;;;;;;;9.18;4.30;;;18.20;99.90;;;;;;2081081;28;20061;-70
2023/08/04 01:41:15;;;;;;;13.45;5.03;;;18.20;99.90;;;;;;2079055;28;20029;-70
2023/08/04 01:42:15;;;;;;;8.93;4.03;;;18.20;99.90;;;;;;2080057;28;20424;-70
2023/08/04 01:43:16;;;;;;;6.20;3.38;;;18.20;99.90;;;;;;2081436;28;20030;-70
2023/08/04 01:44:16;;;;;;;10.30;3.85;;;18.20;99.90;;;;;;2079161;28;20029;-70
2023/08/04 01:45:17;;;;;;;7.28;4.13;;;18.20;99.90;;;;;;2079595;28;20123;-70
2023/08/04 01:46:18;;;;;;;10.57;4.63;;;18.10;99.90;;;;;;2080708;28;20112;-71
2023/08/04 01:47:18;;;;;;;7.07;4.40;;;18.20;99.90;;;;;;2078177;28;20053;-71
2023/08/04 01:48:19;;;;;;;9.43;4.00;;;18.20;99.90;;;;;;2080130;28;20033;-70
2023/08/04 01:49:19;;;;;;;8.77;3.80;;;18.10;99.90;;;;;;2078429;28;20504;-70
2023/08/04 01:50:20;;;;;;;9.63;4.22;;;18.10;99.90;;;;;;2077840;28;20060;-70
2023/08/04 01:51:20;;;;;;;9.48;3.85;;;18.20;99.90;;;;;;2081781;28;20029;-70
2023/08/04 01:52:22;;;;;;;9.18;4.05;;;18.20;99.90;;;;;;2079453;28;20025;-71
2023/08/04 01:53:22;;;;;;;9.05;4.07;;;18.10;99.90;;;;;;2079865;28;20061;-71
2023/08/04 01:54:23;;;;;;;8.00;4.40;;;18.10;99.90;;;;;;2080154;28;20033;-70
2023/08/04 01:55:23;;;;;;;9.00;4.05;;;18.10;99.90;;;;;;2078027;28;20061;-70
2023/08/04 01:56:24;;;;;;;7.32;3.50;;;18.20;99.90;;;;;;2079726;28;20630;-70
2023/08/04 01:57:24;;;;;;;7.18;3.97;;;18.20;99.90;;;;;;2078707;28;20029;-71
2023/08/04 01:58:25;;;;;;;10.93;4.45;;;18.10;99.90;;;;;;2080255;28;20021;-70
2023/08/04 01:59:26;;;;;;;9.05;4.38;;;18.20;99.90;;;;;;2079868;28;20024;-71
2023/08/04 02:00:26;;;;;;;7.68;3.63;;;18.20;99.90;;;;;;2081967;28;20034;-71
2023/08/04 02:01:27;;;;;;;7.22;3.60;;;18.20;99.90;;;;;;2082292;28;20113;-71
2023/08/04 02:02:28;;;;;;;5.82;3.90;;;18.20;99.90;;;;;;2085913;28;20158;-71
2023/08/04 02:03:28;;;;;;;7.22;3.97;;;18.20;99.90;;;;;;2084453;28;20539;-70
2023/08/04 02:04:29;;;;;;;8.43;4.32;;;18.20;99.90;;;;;;2081090;28;20527;-71
2023/08/04 02:05:29;;;;;;;9.75;3.83;;;18.20;99.90;;;;;;2081897;28;20013;-71
2023/08/04 02:06:30;;;;;;;10.30;4.47;;;18.20;99.90;;;;;;2080478;28;20396;-71
2023/08/04 02:07:30;;;;;;;10.80;4.45;;;18.20;99.90;;;;;;2081155;28;20021;-71
2023/08/04 02:08:31;;;;;;;9.65;4.15;;;18.20;99.90;;;;;;2080502;28;20075;-71
2023/08/04 02:09:33;;;;;;;8.40;4.40;;;18.10;99.90;;;;;;2081011;28;20490;-71
2023/08/04 02:10:33;;;;;;;13.85;5.18;;;18.20;99.90;;;;;;2080972;28;20025;-70
2023/08/04 02:11:34;;;;;;;10.02;3.95;;;18.10;99.90;;;;;;2078870;28;20647;-71
2023/08/04 02:12:34;;;;;;;8.73;4.22;;;18.10;99.90;;;;;;2082203;28;20017;-71
2023/08/04 02:13:35;;;;;;;11.48;4.20;;;18.10;99.90;;;;;;2081214;28;20108;-71
2023/08/04 02:14:35;;;;;;;7.32;3.95;;;18.10;99.90;;;;;;2080836;28;20033;-70
2023/08/04 02:15:36;;;;;;;7.00;3.75;;;18.10;99.90;;;;;;2082046;28;20473;-71
2023/08/04 02:16:36;;;;;;;12.82;4.50;;;18.10;99.90;;;;;;2077999;28;20519;-70
2023/08/04 02:17:37;;;;;;;7.60;3.35;;;18.10;99.90;;;;;;2080709;28;20420;-71
2023/08/04 02:18:37;;;;;;;8.70;4.03;;;18.10;99.90;;;;;;2080175;28;20025;-71
2023/08/04 02:19:38;;;;;;;10.20;4.53;;;18.10;99.90;;;;;;2082558;28;20148;-71
2023/08/04 02:20:38;;;;;;;10.88;4.72;;;18.10;99.90;;;;;;2083864;28;20035;-71
2023/08/04 02:21:39;;;;;;;6.00;3.72;;;18.10;99.90;;;;;;2083458;28;20033;-70
2023/08/04 02:22:40;;;;;;;7.38;5.07;;;18.20;99.90;;;;;;2080960;28;20438;-71
2023/08/04 02:23:40;;;;;;;10.25;4.65;;;18.10;99.90;;;;;;2082878;28;20067;-71
2023/08/04 02:24:41;;;;;;;8.65;4.10;;;18.10;99.90;;;;;;2081374;28;20034;-71
2023/08/04 02:25:41;;;;;;;9.13;4.10;;;18.10;99.90;;;;;;2082457;28;20036;-71
2023/08/04 02:26:44;;;;;;;6.93;3.65;;;18.10;99.90;;;;;;2079748;28;20030;-70
2023/08/04 02:27:44;;;;;;;7.22;3.75;;;18.10;99.90;;;;;;2081461;28;20444;-71
2023/08/04 02:28:45;;;;;;;8.13;3.90;;;18.10;99.90;;;;;;2080628;28;20100;-71
2023/08/04 02:29:45;;;;;;;6.95;3.75;;;18.10;99.90;;;;;;2079270;28;20101;-70
2023/08/04 02:30:46;;;;;;;9.02;4.38;;;18.10;99.90;;;;;;2081066;28;20099;-71
2023/08/04 02:31:47;;;;;;;11.38;4.40;;;18.10;99.90;;;;;;2081426;28;20040;-71
2023/08/04 02:32:47;;;;;;;7.25;3.47;;;18.10;99.90;;;;;;2082254;28;20934;-71
2023/08/04 02:33:48;;;;;;;9.07;4.57;;;18.10;99.90;;;;;;2081334;28;20090;-71
2023/08/04 02:34:51;;;;;;;12.63;5.00;;;18.10;99.90;;;;;;2080058;28;20032;-70
2023/08/04 02:35:59;;;;;;;11.00;4.63;;;18.10;99.90;;;;;;2081096;28;20029;-70
2023/08/04 02:36:59;;;;;;;8.32;4.30;;;18.10;99.90;;;;;;2083456;28;20044;-71
2023/08/04 02:38:00;;;;;;;8.18;4.00;;;18.10;99.90;;;;;;2080842;28;20030;-70
2023/08/04 02:39:01;;;;;;;9.30;3.92;;;18.10;99.90;;;;;;2082497;28;20021;-70
2023/08/04 02:40:01;;;;;;;8.20;4.00;;;18.10;99.90;;;;;;2079689;28;20030;-71
2023/08/04 02:41:03;;;;;;;9.85;3.80;;;18.10;99.90;;;;;;2078990;28;20579;-70
2023/08/04 02:42:03;;;;;;;6.82;3.85;;;18.10;99.90;;;;;;2080482;28;20509;-70
2023/08/04 02:43:04;;;;;;;9.70;4.05;;;18.10;99.90;;;;;;2080077;28;20402;-70
2023/08/04 02:44:06;;;;;;;11.57;4.25;;;18.10;99.90;;;;;;2081181;28;20026;-70
2023/08/04 02:45:07;;;;;;;8.50;5.00;;;18.10;99.90;;;;;;2079822;28;20025;-70
2023/08/04 02:46:10;;;;;;;8.18;4.05;;;18.10;99.90;;;;;;2080731;28;20032;-71
2023/08/04 02:47:11;;;;;;;7.25;4.35;;;18.10;99.90;;;;;;2080699;28;20024;-70
2023/08/04 02:48:11;;;;;;;10.30;3.90;;;18.10;99.90;;;;;;2080078;28;20033;-70
2023/08/04 02:49:12;;;;;;;8.43;3.95;;;18.10;99.90;;;;;;2082677;28;20039;-71
2023/08/04 02:50:12;;;;;;;5.75;3.42;;;18.10;99.90;;;;;;2080672;28;20495;-70
2023/08/04 02:51:13;;;;;;;6.68;3.95;;;18.10;99.90;;;;;;2081681;28;20047;-70
2023/08/04 02:52:17;;;;;;;9.82;4.22;;;18.10;99.90;;;;;;2080674;28;20486;-71
2023/08/04 02:53:17;;;;;;;11.10;4.15;;;18.10;99.90;;;;;;2081084;28;20021;-70
2023/08/04 02:54:18;;;;;;;7.20;3.47;;;18.10;99.90;;;;;;2081110;28;20029;-71
2023/08/04 02:55:18;;;;;;;4.93;3.42;;;18.10;99.90;;;;;;2081524;28;20553;-70
2023/08/04 02:56:19;;;;;;;6.85;3.67;;;18.10;99.90;;;;;;2081608;28;20072;-71
2023/08/04 02:57:19;;;;;;;6.22;3.35;;;18.10;99.90;;;;;;2080293;28;20029;-70
2023/08/04 02:58:21;;;;;;;7.90;3.92;;;18.10;99.90;;;;;;2081084;28;20021;-70
2023/08/04 02:59:22;;;;;;;6.15;3.45;;;18.10;99.90;;;;;;2080884;28;20389;-71
2023/08/04 03:00:22;;;;;;;4.93;2.97;;;18.10;99.90;;;;;;2079523;28;20033;-71
2023/08/04 03:01:23;;;;;;;7.95;3.80;;;18.00;99.90;;;;;;2081786;28;20041;-71
2023/08/04 03:02:25;;;;;;;7.45;3.90;;;18.00;99.90;;;;;;2078762;28;20828;-71
2023/08/04 03:03:25;;;;;;;7.45;4.00;;;18.00;99.90;;;;;;2079392;28;20137;-71
2023/08/04 03:04:26;;;;;;;8.45;3.95;;;18.00;99.90;;;;;;2081567;28;20087;-71
2023/08/04 03:05:27;;;;;;;9.85;4.53;;;18.00;99.90;;;;;;2080390;28;20052;-70
2023/08/04 03:06:27;;;;;;;9.65;4.18;;;18.00;99.90;;;;;;2079639;28;20423;-71
2023/08/04 03:07:28;;;;;;;5.10;3.53;;;18.00;99.90;;;;;;2081401;28;20539;-71
2023/08/04 03:08:31;;;;;;;8.77;4.35;;;17.90;99.90;;;;;;2081164;28;20032;-71
2023/08/04 03:09:31;;;;;;;9.77;4.43;;;18.00;99.90;;;;;;2080735;28;20032;-70
2023/08/04 03:10:32;;;;;;;8.43;4.22;;;18.00;99.90;;;;;;2079235;28;20486;-70
2023/08/04 03:11:33;;;;;;;9.55;3.92;;;17.90;99.90;;;;;;2080182;28;20028;-71
2023/08/04 03:12:33;;;;;;;11.13;3.67;;;17.90;99.90;;;;;;2082173;28;20049;-70
2023/08/04 03:13:34;;;;;;;8.93;4.13;;;17.90;99.90;;;;;;2080238;28;20025;-71
2023/08/04 03:14:34;;;;;;;6.72;4.25;;;17.90;99.90;;;;;;2079085;28;20021;-70
2023/08/04 03:15:35;;;;;;;9.55;3.85;;;17.90;99.90;;;;;;2080413;28;20025;-70
2023/08/04 03:16:36;;;;;;;5.78;3.78;;;17.90;99.90;;;;;;2081465;28;20025;-70
2023/08/04 03:17:36;;;;;;;5.80;3.58;;;17.90;99.90;;;;;;2080704;28;20108;-70
2023/08/04 03:18:37;;;;;;;5.43;3.70;;;17.90;99.90;;;;;;2080277;28;20029;-71
2023/08/04 03:19:37;;;;;;;7.55;3.67;;;17.80;99.90;;;;;;2079349;28;20643;-71
2023/08/04 03:20:40;;;;;;;10.70;4.30;;;17.80;99.90;;;;;;2080195;28;20156;-70
2023/08/04 03:21:40;;;;;;;9.05;3.97;;;17.80;99.90;;;;;;2080494;28;20033;-70
2023/08/04 03:22:41;;;;;;;9.15;3.92;;;17.90;99.90;;;;;;2079968;28;20526;-70
2023/08/04 03:23:41;;;;;;;9.48;3.97;;;17.80;99.90;;;;;;2077792;28;20088;-70
2023/08/04 03:24:42;;;;;;;10.43;3.78;;;17.80;99.90;;;;;;2081010;28;20029;-70
2023/08/04 03:25:42;;;;;;;6.43;3.58;;;17.80;99.90;;;;;;2080668;28;20025;-71
2023/08/04 03:26:43;;;;;;;9.95;4.15;;;17.80;99.90;;;;;;2080578;28;20476;-71
2023/08/04 03:27:43;;;;;;;7.53;4.57;;;17.80;99.90;;;;;;2079985;28;20021;-70
2023/08/04 03:28:44;;;;;;;8.32;4.30;;;17.80;99.90;;;;;;2080923;28;20044;-71
2023/08/04 03:29:46;;;;;;;9.05;3.70;;;17.80;99.90;;;;;;2081040;28;20106;-71
2023/08/04 03:30:47;;;;;;;6.80;3.58;;;17.80;99.90;;;;;;2083683;28;20025;-71
2023/08/04 03:31:47;;;;;;;13.15;4.63;;;17.80;99.90;;;;;;2081211;28;20115;-71
2023/08/04 03:32:48;;;;;;;6.05;4.10;;;17.80;99.90;;;;;;2081876;28;20446;-70
2023/08/04 03:33:48;;;;;;;9.10;3.85;;;17.80;99.90;;;;;;2081431;28;20024;-71
2023/08/04 03:34:49;;;;;;;11.43;4.70;;;17.70;99.90;;;;;;2079323;28;20040;-71
2023/08/04 03:35:50;;;;;;;6.05;3.70;;;17.70;99.90;;;;;;2079943;28;20071;-71
2023/08/04 03:36:51;;;;;;;6.88;4.10;;;17.80;99.90;;;;;;2080960;28;20025;-70
2023/08/04 03:37:51;;;;;;;7.70;3.65;;;17.70;99.90;;;;;;2079947;28;20547;-70
2023/08/04 03:38:52;;;;;;;6.53;4.10;;;17.70;99.90;;;;;;2080166;28;20100;-70
2023/08/04 03:39:52;;;;;;;7.25;3.95;;;17.70;99.90;;;;;;2081486;28;20029;-71
2023/08/04 03:40:53;;;;;;;6.30;4.07;;;17.70;99.90;;;;;;2082288;28;20029;-70
2023/08/04 03:41:53;;;;;;;7.95;4.30;;;17.70;99.90;;;;;;2082094;28;20040;-71
2023/08/04 03:42:54;;;;;;;7.93;4.30;;;17.70;99.90;;;;;;2081417;28;20564;-70
2023/08/04 03:43:54;;;;;;;8.07;4.78;;;17.70;99.90;;;;;;2081280;28;20044;-70
2023/08/04 03:44:55;;;;;;;6.53;4.22;;;17.70;99.90;;;;;;2079305;28;20037;-70
2023/08/04 03:45:55;;;;;;;11.88;4.45;;;17.70;99.90;;;;;;2080348;28;20053;-71
2023/08/04 03:46:56;;;;;;;8.25;3.95;;;17.70;99.90;;;;;;2080176;28;20104;-71
2023/08/04 03:47:56;;;;;;;7.47;4.30;;;17.70;99.90;;;;;;2078311;28;20029;-71
2023/08/04 03:48:57;;;;;;;9.05;3.90;;;17.70;99.90;;;;;;2081005;28;20753;-70
2023/08/04 03:49:58;;;;;;;9.55;4.75;;;17.70;99.90;;;;;;2078899;28;20021;-71
2023/08/04 03:50:58;;;;;;;7.22;4.40;;;17.70;99.90;;;;;;2082110;28;20029;-70
2023/08/04 03:51:59;;;;;;;12.25;5.18;;;17.70;99.90;;;;;;2080822;28;20028;-70
2023/08/04 03:52:59;;;;;;;11.90;5.13;;;17.70;99.90;;;;;;2081344;28;20036;-70
2023/08/04 03:54:00;;;;;;;8.82;4.75;;;17.70;99.90;;;;;;2080481;28;20029;-71
2023/08/04 03:55:00;;;;;;;7.57;4.40;;;17.70;99.90;;;;;;2080622;28;20027;-71
2023/08/04 03:56:01;;;;;;;11.02;4.30;;;17.70;99.90;;;;;;2079375;28;20045;-70
2023/08/04 03:57:02;;;;;;;8.82;4.63;;;17.70;99.90;;;;;;2080557;28;20033;-71
2023/08/04 03:58:03;;;;;;;7.97;4.30;;;17.70;99.90;;;;;;2079370;28;20021;-71
2023/08/04 03:59:03;;;;;;;10.55;4.30;;;17.70;99.90;;;;;;2080251;28;20029;-71
2023/08/04 04:00:05;;;;;;;8.90;4.40;;;17.70;99.90;;;;;;2081469;28;20025;-71
2023/08/04 04:01:06;;;;;;;9.27;4.65;;;17.70;99.90;;;;;;2081586;28;20083;-70
2023/08/04 04:02:06;;;;;;;8.80;4.35;;;17.70;99.90;;;;;;2081125;28;20086;-70
2023/08/04 04:03:07;;;;;;;6.97;4.55;;;17.70;99.90;;;;;;2080452;28;20032;-70
2023/08/04 04:04:07;;;;;;;10.68;4.68;;;17.70;99.90;;;;;;2080570;28;20017;-71
2023/08/04 04:05:08;;;;;;;8.57;4.57;;;17.70;99.90;;;;;;2082175;28;20389;-71
2023/08/04 04:06:09;;;;;;;7.72;4.85;;;17.80;99.90;;;;;;2078043;28;20017;-71
2023/08/04 04:07:09;;;;;;;9.90;4.70;;;17.70;99.90;;;;;;2081547;28;20076;-70
2023/08/04 04:08:10;;;;;;;7.75;4.85;;;17.70;99.90;;;;;;2080602;28;20439;-71
2023/08/04 04:09:11;;;;;;;8.57;5.32;;;17.70;99.90;;;;;;2080152;28;20032;-70
2023/08/04 04:10:12;;;;;;;8.48;4.78;;;17.70;99.90;;;;;;2078541;28;20023;-70
2023/08/04 04:11:12;;;;;;;7.10;4.10;;;17.70;99.90;;;;;;2079484;28;20067;-70
2023/08/04 04:12:13;;;;;;;12.38;5.57;;;17.80;99.90;;;;;;2079455;28;20070;-71
2023/08/04 04:13:14;;;;;;;9.80;5.05;;;17.80;99.90;;;;;;2080908;28;20030;-73
2023/08/04 04:14:14;;;;;;;9.63;5.50;;;17.80;99.90;;;;;;2080427;28;20034;-72
2023/08/04 04:15:15;;;;;;;9.98;5.15;;;17.80;99.90;;;;;;2081168;28;20040;-71
2023/08/04 04:16:15;;;;;;;14.93;5.47;;;17.80;99.90;;;;;;2074356;28;20506;-71
2023/08/04 04:17:16;;;;;;;9.30;4.60;;;17.80;99.90;;;;;;2074547;28;20135;-70
2023/08/04 04:18:16;;;;;;;10.15;5.10;;;17.70;99.90;;;;;;2079369;28;20036;-72
2023/08/04 04:19:17;;;;;;;9.35;5.20;;;17.80;99.90;;;;;;2079775;28;20121;-72
2023/08/04 04:20:17;;;;;;;9.98;5.82;;;17.80;99.90;;;;;;2079543;28;20060;-72
2023/08/04 04:21:18;;;;;;;8.02;5.13;;;17.80;99.90;;;;;;2080825;28;20043;-70
2023/08/04 04:22:18;;;;;;;9.25;4.88;;;17.80;99.90;;;;;;2077649;28;20028;-71
2023/08/04 04:23:19;;;;;;;6.18;3.70;;;17.80;99.90;;;;;;2079009;28;20140;-72
2023/08/04 04:24:19;;;;;;;9.00;5.40;;;17.80;99.90;;;;;;2079431;28;20036;-70
2023/08/04 04:25:20;;;;;;;7.60;4.63;;;17.80;99.90;;;;;;2080068;28;20033;-72
2023/08/04 04:26:21;;;;;;;9.10;5.22;;;17.80;99.90;;;;;;2082064;28;20032;-73
2023/08/04 04:27:21;;;;;;;13.77;6.32;;;17.80;99.90;;;;;;2079707;28;20030;-70
2023/08/04 04:28:22;;;;;;;9.73;5.07;;;17.80;99.90;;;;;;2079105;28;20108;-71
2023/08/04 04:29:22;;;;;;;9.98;5.32;;;17.80;99.90;;;;;;2082089;28;20070;-71
2023/08/04 04:30:23;;;;;;;8.55;4.53;;;17.80;99.90;;;;;;2079164;28;20502;-71
2023/08/04 04:31:24;;;;;;;8.73;4.32;;;17.80;99.90;;;;;;2080719;28;20072;-72
2023/08/04 04:32:24;;;;;;;12.18;5.93;;;17.80;99.90;;;;;;2078293;28;20724;-71
2023/08/04 04:33:25;;;;;;;9.60;4.85;;;17.80;99.90;;;;;;2080414;28;20606;-71
2023/08/04 04:34:25;;;;;;;5.68;3.38;;;17.80;99.90;;;;;;2081623;28;20021;-71
2023/08/04 04:35:26;;;;;;;7.00;3.58;;;17.80;99.90;;;;;;2080052;28;20112;-70
2023/08/04 04:36:26;;;;;;;9.63;4.78;;;17.80;99.90;;;;;;2080602;28;20025;-70
2023/08/04 04:37:27;;;;;;;8.50;4.50;;;17.80;99.90;;;;;;2081897;28;20025;-70
2023/08/04 04:38:28;;;;;;;10.57;5.57;;;17.80;99.90;;;;;;2081391;28;20111;-73
2023/08/04 04:39:29;;;;;;;8.93;4.90;;;17.80;99.90;;;;;;2081851;28;20481;-70
2023/08/04 04:40:29;;;;;;;13.23;6.25;;;17.80;99.90;;;;;;2078899;28;20363;-71
2023/08/04 04:41:30;;;;;;;10.57;4.93;;;17.80;99.90;;;;;;2081448;28;20433;-70
2023/08/04 04:42:33;;;;;;;9.82;4.50;;;17.80;99.90;;;;;;2081035;28;20032;-70
2023/08/04 04:43:35;;;;;;;9.02;5.07;;;17.80;99.90;;;;;;2080328;28;20025;-71
2023/08/04 04:44:36;;;;;;;11.32;6.15;;;17.80;99.90;;;;;;2079218;28;20030;-70
2023/08/04 04:45:45;;;;;;;16.15;5.75;;;17.80;99.90;;;;;;2080728;28;20496;-70
2023/08/04 04:46:45;;;;;;;7.20;4.60;;;17.80;99.90;;;;;;2079760;28;20388;-70
2023/08/04 04:47:46;;;;;;;11.95;5.60;;;17.80;99.90;;;;;;2081395;28;20026;-70
2023/08/04 04:48:46;;;;;;;8.60;4.60;;;17.80;99.90;;;;;;2080121;28;20040;-71
2023/08/04 04:49:47;;;;;;;9.52;5.13;;;17.80;99.90;;;;;;2081948;28;20496;-70
2023/08/04 04:50:49;;;;;;;10.18;5.65;;;17.80;99.90;;;;;;2082831;28;20533;-70
2023/08/04 04:51:50;;;;;;;11.38;5.28;;;17.80;99.90;;;;;;2078289;28;20025;-70
2023/08/04 04:52:51;;;;;;;9.50;4.50;;;17.80;99.90;;;;;;2089319;28;20024;-70
2023/08/04 04:53:52;;;;;;;9.80;5.90;;;17.80;99.90;;;;;;2090571;28;20386;-70
2023/08/04 04:54:52;;;;;;;13.35;5.78;;;17.80;99.90;;;;;;2078004;28;20056;-70
2023/08/04 04:55:55;;;;;;;7.90;4.72;;;17.80;99.90;;;;;;2075527;28;20020;-70
2023/08/04 04:56:55;;;;;;;9.63;5.60;;;17.90;99.90;;;;;;2078962;28;20091;-70
2023/08/04 04:57:56;;;;;;;14.55;5.45;;;17.90;99.90;;;;;;2079344;28;20072;-70
2023/08/04 04:58:57;;;;;;;12.57;5.13;;;17.90;99.90;;;;;;2080664;28;20029;-70
2023/08/04 04:59:57;;;;;;;7.28;4.43;;;17.90;99.90;;;;;;2080440;28;20029;-70
2023/08/04 05:01:02;;;;;;;11.32;5.78;;;17.90;99.90;;;;;;2079549;28;20043;-71
2023/08/04 05:02:03;;;;;;;8.30;5.30;;;17.90;99.90;;;;;;2081303;28;20075;-71
2023/08/04 05:03:06;;;;;;;7.70;4.72;;;17.90;99.90;;;;;;2080812;28;20034;-70
2023/08/04 05:04:07;;;;;;;9.45;5.28;;;17.90;99.90;;;;;;2079003;28;20031;-70
2023/08/04 05:05:08;;;;;;;11.52;6.15;;;17.90;99.90;;;;;;2080141;28;20029;-70
2023/08/04 05:06:08;;;;;;;11.50;5.30;;;17.90;99.90;;;;;;2079593;28;20109;-71
2023/08/04 05:07:09;;;;;;;12.73;5.47;;;17.90;99.90;;;;;;2080170;28;20034;-70
2023/08/04 05:08:09;;;;;;;10.63;5.95;;;17.90;99.90;;;;;;2078197;28;20041;-70
2023/08/04 05:09:10;;;;;;;10.75;5.70;;;17.90;99.90;;;;;;2081099;28;20022;-70
2023/08/04 05:10:10;;;;;;;9.40;5.25;;;17.90;99.90;;;;;;2077852;28;20084;-70
2023/08/04 05:11:11;;;;;;;12.13;5.90;;;17.90;99.90;;;;;;2079382;28;20056;-71
2023/08/04 05:12:11;;;;;;;8.32;5.20;;;18.00;99.90;;;;;;2079817;28;20204;-71
2023/08/04 05:13:12;;;;;;;12.35;6.18;;;18.00;99.90;;;;;;2079633;28;20026;-70
2023/08/04 05:14:13;;;;;;;10.02;6.00;;;17.90;99.90;;;;;;2078257;28;20017;-71
2023/08/04 05:15:13;;;;;;;9.95;5.65;;;18.00;99.90;;;;;;2077904;28;20045;-71
2023/08/04 05:16:14;;;;;;;12.52;5.07;;;17.90;99.90;;;;;;2081757;28;20025;-70
2023/08/04 05:17:14;;;;;;;14.85;6.15;;;18.00;99.90;;;;;;2080612;28;20083;-71